createdAt,value
2017-11-13T00:01:54.805Z,95.88
2017-11-13T00:04:23.085Z,95.67
2017-11-13T00:06:51.361Z,95.67
2017-11-13T00:09:19.636Z,95.53
2017-11-13T00:11:47.920Z,95.97
2017-11-13T00:14:16.206Z,96.08
2017-11-13T00:16:44.511Z,95.82
2017-11-13T00:19:13.560Z,95.14
2017-11-13T00:21:41.842Z,94.68
2017-11-13T00:24:11.082Z,94.65
2017-11-13T00:26:39.352Z,95.51
2017-11-13T00:29:07.633Z,95.57
2017-11-13T00:31:35.924Z,95.25
2017-11-13T00:34:04.223Z,95.80
2017-11-13T00:36:33.158Z,95.44
2017-11-13T00:39:01.433Z,95.01
2017-11-13T00:41:29.727Z,94.37
2017-11-13T00:43:58.009Z,94.05
2017-11-13T00:46:26.281Z,94.81
2017-11-13T00:48:54.578Z,94.90
2017-11-13T00:51:22.858Z,95.02
2017-11-13T00:53:51.139Z,94.28
2017-11-13T00:56:19.737Z,93.57
2017-11-13T00:58:48.017Z,93.50
2017-11-13T01:01:16.309Z,93.55
2017-11-13T01:03:46.504Z,93.49
2017-11-13T01:06:14.785Z,93.68
2017-11-13T01:08:43.058Z,94.09
2017-11-13T01:11:11.334Z,94.14
2017-11-13T01:13:39.613Z,94.64
2017-11-13T01:16:07.918Z,95.83
2017-11-13T01:18:36.218Z,95.60
2017-11-13T01:21:05.186Z,95.22
2017-11-13T01:23:33.454Z,95.91
2017-11-13T01:26:01.732Z,95.76
2017-11-13T01:28:30.013Z,95.75
2017-11-13T01:30:58.289Z,96.00
2017-11-13T01:33:26.570Z,95.85
2017-11-13T01:35:54.849Z,95.96
2017-11-13T01:38:23.125Z,96.76
2017-11-13T01:40:51.400Z,97.30
2017-11-13T01:43:19.694Z,97.13
2017-11-13T01:45:47.977Z,96.27
2017-11-13T01:48:16.254Z,98.17
2017-11-13T01:50:44.543Z,97.78
2017-11-13T01:53:12.813Z,97.01
2017-11-13T01:55:41.096Z,97.98
2017-11-13T01:58:09.367Z,96.47
2017-11-13T02:00:37.658Z,96.40
2017-11-13T02:03:05.937Z,95.76
2017-11-13T02:05:34.209Z,94.84
2017-11-13T02:08:02.542Z,94.06
2017-11-13T02:10:30.827Z,93.63
2017-11-13T02:13:00.919Z,93.57
2017-11-13T02:15:30.146Z,93.68
2017-11-13T02:17:58.438Z,93.85
2017-11-13T02:20:26.716Z,93.38
2017-11-13T02:22:54.991Z,93.79
2017-11-13T02:25:23.280Z,93.64
2017-11-13T02:27:51.578Z,92.98
2017-11-13T02:30:19.855Z,92.93
2017-11-13T02:32:48.158Z,93.29
2017-11-13T02:35:16.417Z,93.36
2017-11-13T02:37:44.697Z,93.14
2017-11-13T02:40:12.993Z,94.00
2017-11-13T02:42:41.269Z,93.95
2017-11-13T02:45:09.553Z,94.20
2017-11-13T02:47:37.881Z,95.02
2017-11-13T02:50:06.159Z,96.06
2017-11-13T02:52:34.434Z,97.41
2017-11-13T02:55:02.730Z,96.64
2017-11-13T02:57:31.006Z,95.70
2017-11-13T02:59:59.299Z,94.77
2017-11-13T03:02:27.592Z,94.03
2017-11-13T03:04:55.878Z,93.62
2017-11-13T03:07:24.162Z,93.48
2017-11-13T03:09:52.441Z,93.36
2017-11-13T03:12:21.517Z,93.54
2017-11-13T03:14:50.563Z,93.36
2017-11-13T03:17:18.849Z,92.99
2017-11-13T03:19:47.652Z,92.35
2017-11-13T03:22:16.714Z,92.31
2017-11-13T03:24:44.993Z,92.21
2017-11-13T03:27:13.298Z,92.20
2017-11-13T03:29:41.582Z,93.08
2017-11-13T03:32:10.582Z,93.70
2017-11-13T03:34:38.858Z,94.16
2017-11-13T03:37:07.142Z,94.92
2017-11-13T03:39:36.187Z,95.73
2017-11-13T03:42:04.462Z,95.62
2017-11-13T03:44:32.753Z,95.22
2017-11-13T03:47:01.040Z,95.54
2017-11-13T03:49:29.318Z,95.15
2017-11-13T03:51:58.852Z,94.84
2017-11-13T03:54:27.138Z,95.47
2017-11-13T03:56:55.417Z,95.95
2017-11-13T03:59:23.712Z,95.47
2017-11-13T04:01:52.764Z,95.24
2017-11-13T04:04:21.817Z,95.13
2017-11-13T04:06:50.090Z,95.04
2017-11-13T04:09:18.381Z,95.00
2017-11-13T04:11:46.661Z,94.38
2017-11-13T04:14:14.936Z,93.92
2017-11-13T04:16:43.498Z,96.21
2017-11-13T04:19:11.785Z,97.79
2017-11-13T04:21:40.076Z,99.04
2017-11-13T04:24:08.350Z,98.80
2017-11-13T04:26:36.629Z,98.90
2017-11-13T04:29:04.905Z,99.43
2017-11-13T04:31:33.187Z,99.88
2017-11-13T04:34:01.461Z,99.30
2017-11-13T04:36:29.737Z,99.77
2017-11-13T04:38:58.017Z,98.73
2017-11-13T04:41:26.296Z,98.54
2017-11-13T04:43:54.580Z,98.58
2017-11-13T04:46:23.635Z,97.75
2017-11-13T04:48:51.909Z,97.64
2017-11-13T04:51:20.189Z,96.99
2017-11-13T04:53:48.474Z,96.43
2017-11-13T04:56:17.041Z,96.51
2017-11-13T04:58:45.327Z,96.57
2017-11-13T05:01:13.609Z,96.00
2017-11-13T05:03:41.889Z,95.67
2017-11-13T05:06:10.166Z,96.03
2017-11-13T05:08:38.441Z,95.86
2017-11-13T05:11:06.720Z,95.66
2017-11-13T05:13:34.970Z,95.17
2017-11-13T05:16:03.250Z,94.86
2017-11-13T05:18:31.534Z,95.33
2017-11-13T05:20:59.879Z,95.67
2017-11-13T05:23:28.230Z,95.28
2017-11-13T05:25:56.517Z,94.85
2017-11-13T05:28:25.570Z,94.56
2017-11-13T05:30:53.858Z,94.82
2017-11-13T05:33:22.154Z,94.15
2017-11-13T05:35:51.193Z,93.53
2017-11-13T05:38:19.481Z,93.69
2017-11-13T05:40:47.763Z,93.85
2017-11-13T05:43:16.042Z,94.64
2017-11-13T05:45:44.324Z,94.41
2017-11-13T05:48:12.625Z,94.13
2017-11-13T05:50:40.894Z,93.56
2017-11-13T05:53:09.184Z,94.10
2017-11-13T05:55:38.241Z,94.49
2017-11-13T05:58:06.971Z,94.96
2017-11-13T06:00:35.239Z,94.50
2017-11-13T06:03:04.275Z,94.20
2017-11-13T06:05:32.561Z,95.48
2017-11-13T06:08:00.833Z,95.24
2017-11-13T06:10:29.199Z,95.45
2017-11-13T06:12:57.498Z,95.16
2017-11-13T06:15:25.810Z,95.13
2017-11-13T06:17:54.094Z,95.07
2017-11-13T06:20:22.422Z,94.86
2017-11-13T06:22:50.709Z,95.02
2017-11-13T06:25:18.989Z,94.85
2017-11-13T06:27:47.269Z,93.97
2017-11-13T06:30:15.541Z,93.86
2017-11-13T06:32:44.094Z,93.41
2017-11-13T06:35:12.374Z,93.96
2017-11-13T06:37:40.648Z,94.26
2017-11-13T06:40:09.024Z,94.90
2017-11-13T06:42:37.332Z,94.66
2017-11-13T06:45:05.646Z,94.19
2017-11-13T06:47:33.936Z,94.45
2017-11-13T06:50:02.217Z,93.80
2017-11-13T06:52:30.552Z,94.31
2017-11-13T06:54:58.844Z,93.59
2017-11-13T06:57:27.204Z,92.98
2017-11-13T06:59:55.497Z,93.84
2017-11-13T07:02:23.781Z,93.79
2017-11-13T07:04:52.878Z,92.64
2017-11-13T07:07:21.984Z,92.42
2017-11-13T07:09:50.266Z,92.58
2017-11-13T07:12:18.541Z,93.00
2017-11-13T07:14:46.837Z,92.80
2017-11-13T07:17:15.842Z,93.02
2017-11-13T07:19:44.113Z,92.79
2017-11-13T07:22:12.388Z,93.10
2017-11-13T07:24:40.662Z,92.94
2017-11-13T07:27:09.702Z,92.84
2017-11-13T07:29:37.979Z,92.88
2017-11-13T07:32:06.359Z,92.13
2017-11-13T07:34:35.412Z,91.66
2017-11-13T07:37:03.697Z,91.97
2017-11-13T07:39:31.985Z,92.85
2017-11-13T07:42:00.283Z,93.18
2017-11-13T07:44:29.353Z,92.51
2017-11-13T07:46:57.648Z,92.21
2017-11-13T07:49:25.941Z,91.82
2017-11-13T07:51:54.222Z,91.65
2017-11-13T07:54:23.271Z,92.16
2017-11-13T07:56:51.554Z,92.14
2017-11-13T07:59:19.853Z,92.97
2017-11-13T08:01:48.141Z,92.13
2017-11-13T08:04:16.456Z,92.11
2017-11-13T08:06:44.737Z,92.00
2017-11-13T08:09:13.010Z,93.26
2017-11-13T08:11:41.284Z,93.50
2017-11-13T08:14:09.586Z,93.22
2017-11-13T08:16:38.071Z,92.49
2017-11-13T08:19:06.350Z,92.62
2017-11-13T08:21:35.409Z,92.74
2017-11-13T08:24:03.705Z,92.85
2017-11-13T08:26:32.000Z,92.67
2017-11-13T08:29:00.777Z,92.02
2017-11-13T08:31:29.057Z,90.12
2017-11-13T08:33:57.994Z,89.26
2017-11-13T08:36:29.221Z,88.76
2017-11-13T08:38:58.340Z,89.37
2017-11-13T08:41:26.626Z,89.35
2017-11-13T08:43:54.893Z,89.63
2017-11-13T08:46:23.169Z,89.71
2017-11-13T08:48:51.455Z,90.15
2017-11-13T08:51:19.832Z,89.92
2017-11-13T08:53:48.125Z,89.79
2017-11-13T08:56:16.413Z,89.81
2017-11-13T08:58:44.706Z,91.64
2017-11-13T09:01:12.981Z,91.74
2017-11-13T09:03:41.243Z,92.96
2017-11-13T09:06:09.534Z,92.93
2017-11-13T09:08:37.818Z,93.60
2017-11-13T09:11:06.145Z,94.46
2017-11-13T09:13:34.426Z,93.91
2017-11-13T09:16:02.756Z,91.83
2017-11-13T09:18:31.038Z,93.68
2017-11-13T09:20:59.316Z,92.97
2017-11-13T09:23:27.599Z,93.23
2017-11-13T09:25:55.890Z,92.96
2017-11-13T09:28:24.210Z,93.61
2017-11-13T09:30:52.794Z,92.14
2017-11-13T09:33:21.070Z,89.89
2017-11-13T09:35:49.350Z,91.27
2017-11-13T09:38:17.673Z,89.78
2017-11-13T09:40:46.604Z,90.37
2017-11-13T09:43:15.341Z,89.60
2017-11-13T09:45:43.700Z,87.52
2017-11-13T09:48:12.014Z,87.82
2017-11-13T09:50:40.477Z,87.15
2017-11-13T09:53:08.793Z,85.26
2017-11-13T09:55:37.279Z,84.82
2017-11-13T09:58:05.597Z,85.75
2017-11-13T10:00:34.057Z,85.18
2017-11-13T10:03:08.409Z,84.63
2017-11-13T10:05:37.503Z,84.45
2017-11-13T10:08:05.789Z,82.14
2017-11-13T10:10:34.080Z,83.64
2017-11-13T10:13:02.363Z,81.02
2017-11-13T10:15:30.656Z,81.47
2017-11-13T10:17:59.033Z,80.83
2017-11-13T10:20:27.366Z,83.52
2017-11-13T10:22:55.654Z,82.07
2017-11-13T10:25:24.698Z,81.86
2017-11-13T10:27:53.016Z,82.25
2017-11-13T10:30:22.070Z,79.17
2017-11-13T10:32:50.345Z,78.41
2017-11-13T10:35:18.637Z,81.16
2017-11-13T10:37:46.954Z,81.92
2017-11-13T10:40:15.246Z,80.23
2017-11-13T10:42:43.576Z,80.05
2017-11-13T10:45:12.650Z,80.18
2017-11-13T10:47:40.934Z,79.29
2017-11-13T10:50:09.226Z,81.28
2017-11-13T10:52:38.318Z,81.02
2017-11-13T10:55:06.601Z,78.49
2017-11-13T10:57:34.947Z,77.28
2017-11-13T11:00:03.225Z,76.29
2017-11-13T11:02:31.961Z,76.75
2017-11-13T11:05:00.262Z,78.07
2017-11-13T11:07:28.546Z,76.09
2017-11-13T11:09:57.633Z,76.74
2017-11-13T11:12:27.248Z,75.07
2017-11-13T11:14:56.954Z,77.58
2017-11-13T11:17:29.524Z,78.69
2017-11-13T11:20:12.681Z,76.74
2017-11-13T11:22:41.918Z,77.06
2017-11-13T11:25:11.204Z,74.50
2017-11-13T11:27:39.506Z,73.87
2017-11-13T11:30:13.562Z,71.55
2017-11-13T11:35:53.068Z,71.87
2017-11-13T11:38:22.113Z,74.17
2017-11-13T11:40:50.418Z,74.26
2017-11-13T11:43:18.701Z,73.64
2017-11-13T11:45:48.501Z,74.85
2017-11-13T11:48:27.454Z,74.95
2017-11-13T11:50:56.499Z,72.84
2017-11-13T11:53:26.235Z,70.10
2017-11-13T11:55:55.819Z,69.55
2017-11-13T11:58:24.105Z,65.44
2017-11-13T12:00:52.394Z,67.50
2017-11-13T12:03:20.696Z,66.32
2017-11-13T12:05:48.980Z,64.56
2017-11-13T12:08:17.263Z,65.29
2017-11-13T12:10:45.692Z,64.98
2017-11-13T12:13:14.032Z,64.58
2017-11-13T12:15:42.313Z,64.15
2017-11-13T12:18:10.595Z,64.01
2017-11-13T12:20:38.897Z,63.33
2017-11-13T12:23:07.196Z,64.77
2017-11-13T12:25:36.290Z,65.13
2017-11-13T12:28:06.033Z,64.09
2017-11-13T12:30:34.839Z,66.02
2017-11-13T12:33:03.214Z,64.15
2017-11-13T12:35:31.993Z,63.21
2017-11-13T12:38:00.277Z,65.96
2017-11-13T12:40:28.565Z,62.88
2017-11-13T12:42:56.907Z,64.92
2017-11-13T12:45:25.265Z,65.12
2017-11-13T12:47:53.619Z,66.11
2017-11-13T12:50:21.929Z,65.53
2017-11-13T12:52:50.248Z,65.54
2017-11-13T12:55:18.518Z,66.85
2017-11-13T12:57:46.785Z,69.19
2017-11-13T13:00:15.042Z,69.28
2017-11-13T13:02:43.310Z,67.86
2017-11-13T13:05:11.649Z,65.60
2017-11-13T13:07:40.048Z,66.19
2017-11-13T13:10:08.335Z,64.42
2017-11-13T13:12:36.621Z,61.91
2017-11-13T13:15:05.697Z,60.37
2017-11-13T13:17:33.993Z,58.69
2017-11-13T13:20:03.971Z,57.41
2017-11-13T13:22:32.284Z,60.60
2017-11-13T13:25:01.349Z,61.52
2017-11-13T13:27:29.643Z,60.84
2017-11-13T13:29:57.930Z,64.72
2017-11-13T13:32:26.646Z,67.18
2017-11-13T13:34:54.938Z,66.77
2017-11-13T13:37:23.241Z,63.77
2017-11-13T13:39:51.541Z,61.27
2017-11-13T13:42:20.602Z,60.51
2017-11-13T13:44:48.885Z,59.06
2017-11-13T13:47:17.182Z,63.02
2017-11-13T13:49:45.469Z,64.19
2017-11-13T13:52:13.761Z,66.80
2017-11-13T13:54:42.045Z,66.20
2017-11-13T13:57:10.339Z,66.69
2017-11-13T13:59:39.009Z,64.83
2017-11-13T14:02:07.321Z,64.01
2017-11-13T14:04:35.651Z,61.19
2017-11-13T14:07:04.688Z,63.52
2017-11-13T14:09:32.973Z,62.85
2017-11-13T14:12:01.257Z,61.26
2017-11-13T14:14:29.549Z,60.73
2017-11-13T14:16:57.869Z,60.72
2017-11-13T14:19:27.413Z,63.21
2017-11-13T14:21:55.709Z,59.91
2017-11-13T14:24:23.994Z,60.76
2017-11-13T14:26:52.314Z,62.46
2017-11-13T14:29:20.599Z,61.51
2017-11-13T14:31:49.649Z,62.57
2017-11-13T14:34:18.700Z,60.17
2017-11-13T14:36:48.038Z,61.88
2017-11-13T14:39:16.329Z,60.90
2017-11-13T14:41:45.364Z,59.83
2017-11-13T14:44:13.634Z,60.33
2017-11-13T14:46:43.144Z,59.53
2017-11-13T14:49:11.455Z,61.80
2017-11-13T14:51:39.742Z,63.58
2017-11-13T14:54:08.813Z,64.50
2017-11-13T14:56:37.102Z,62.89
2017-11-13T14:59:05.390Z,65.42
2017-11-13T15:01:33.684Z,67.33
2017-11-13T15:04:01.974Z,69.83
2017-11-13T15:06:30.478Z,71.23
2017-11-13T15:08:58.770Z,73.07
2017-11-13T15:11:27.057Z,75.02
2017-11-13T15:13:55.367Z,75.72
2017-11-13T15:16:23.651Z,75.41
2017-11-13T15:18:51.929Z,76.37
2017-11-13T15:21:20.201Z,78.23
2017-11-13T15:23:48.495Z,78.17
2017-11-13T15:26:16.777Z,79.28
2017-11-13T15:28:45.088Z,79.85
2017-11-13T15:31:13.378Z,79.54
2017-11-13T15:33:43.238Z,80.48
2017-11-13T15:36:11.516Z,80.55
2017-11-13T15:38:39.802Z,79.97
2017-11-13T15:41:08.170Z,79.18
2017-11-13T15:43:36.449Z,79.34
2017-11-13T15:46:04.723Z,80.31
2017-11-13T15:48:33.000Z,82.90
2017-11-13T15:51:01.281Z,83.62
2017-11-13T15:53:29.558Z,82.30
2017-11-13T15:55:57.858Z,81.65
2017-11-13T15:58:26.957Z,80.83
2017-11-13T16:00:55.242Z,80.58
2017-11-13T16:03:25.315Z,80.27
2017-11-13T16:05:53.594Z,80.91
2017-11-13T16:08:21.890Z,82.46
2017-11-13T16:10:50.169Z,82.04
2017-11-13T16:13:18.431Z,82.60
2017-11-13T16:15:46.720Z,82.82
2017-11-13T16:18:14.994Z,82.09
2017-11-13T16:20:43.285Z,82.31
2017-11-13T16:23:11.595Z,81.02
2017-11-13T16:25:40.637Z,83.08
2017-11-13T16:28:08.925Z,82.18
2017-11-13T16:30:37.195Z,82.29
2017-11-13T16:33:05.495Z,82.22
2017-11-13T16:35:33.756Z,82.04
2017-11-13T16:38:02.034Z,82.33
2017-11-13T16:40:30.306Z,82.38
2017-11-13T16:42:58.579Z,83.03
2017-11-13T16:45:26.847Z,83.08
2017-11-13T16:47:55.110Z,86.36
2017-11-13T16:50:23.401Z,85.78
2017-11-13T16:52:51.723Z,87.10
2017-11-13T16:55:19.998Z,86.24
2017-11-13T16:57:48.286Z,87.73
2017-11-13T17:00:17.350Z,86.75
2017-11-13T17:02:45.636Z,86.32
2017-11-13T17:05:13.925Z,89.59
2017-11-13T17:07:42.220Z,88.65
2017-11-13T17:10:10.511Z,87.54
2017-11-13T17:12:38.794Z,87.08
2017-11-13T17:15:07.081Z,86.34
2017-11-13T17:17:35.353Z,87.67
2017-11-13T17:20:03.703Z,86.83
2017-11-13T17:22:31.990Z,86.50
2017-11-13T17:25:00.684Z,86.68
2017-11-13T17:27:28.960Z,87.01
2017-11-13T17:29:57.263Z,87.73
2017-11-13T17:32:25.550Z,89.36
2017-11-13T17:34:53.887Z,90.21
2017-11-13T17:37:22.179Z,89.44
2017-11-13T17:39:50.453Z,89.79
2017-11-13T17:42:18.734Z,89.38
2017-11-13T17:44:47.009Z,90.02
2017-11-13T17:47:15.307Z,90.48
2017-11-13T17:49:43.589Z,89.89
2017-11-13T17:52:11.878Z,89.17
2017-11-13T17:54:40.195Z,88.60
2017-11-13T17:57:08.481Z,88.40
2017-11-13T17:59:36.765Z,88.10
2017-11-13T18:02:05.056Z,87.83
2017-11-13T18:04:33.332Z,88.50
2017-11-13T18:07:01.614Z,89.06
2017-11-13T18:09:29.950Z,89.21
2017-11-13T18:11:58.252Z,90.44
2017-11-13T18:14:26.532Z,90.37
2017-11-13T18:16:54.808Z,91.63
2017-11-13T18:19:23.093Z,94.16
2017-11-13T18:21:52.520Z,95.32
2017-11-13T18:24:21.605Z,93.76
2017-11-13T18:26:49.981Z,92.43
2017-11-13T18:29:18.314Z,91.25
2017-11-13T18:31:46.675Z,90.31
2017-11-13T18:34:15.173Z,90.43
2017-11-13T18:36:44.090Z,89.79
2017-11-13T18:39:12.637Z,89.57
2017-11-13T18:41:41.354Z,89.29
2017-11-13T18:44:10.747Z,89.78
2017-11-13T18:46:39.322Z,90.98
2017-11-13T18:49:09.431Z,91.79
2017-11-13T18:51:39.016Z,91.69
2017-11-13T18:54:08.431Z,91.21
2017-11-13T18:56:37.571Z,92.54
2017-11-13T18:59:06.419Z,92.54
2017-11-13T19:01:35.654Z,92.76
2017-11-13T19:04:05.647Z,93.61
2017-11-13T19:06:35.148Z,93.33
2017-11-13T19:09:06.867Z,92.52
2017-11-13T19:11:36.313Z,91.34
2017-11-13T19:14:07.385Z,91.77
2017-11-13T19:16:36.995Z,92.79
2017-11-13T19:19:06.722Z,96.16
2017-11-13T19:21:36.454Z,96.77
2017-11-13T19:24:06.355Z,95.57
2017-11-13T19:26:36.049Z,94.10
2017-11-13T19:29:05.905Z,93.37
2017-11-13T19:31:36.414Z,93.10
2017-11-13T19:34:06.197Z,93.67
2017-11-13T19:36:36.128Z,92.75
2017-11-13T19:39:06.260Z,92.09
2017-11-13T19:41:37.241Z,92.03
2017-11-13T19:44:07.041Z,91.93
2017-11-13T19:46:37.715Z,92.13
2017-11-13T19:49:07.540Z,94.13
2017-11-13T19:51:37.717Z,93.84
2017-11-13T19:54:08.379Z,93.11
2017-11-13T19:56:38.227Z,91.91
2017-11-13T19:59:08.139Z,91.67
2017-11-13T20:01:38.025Z,92.04
2017-11-13T20:04:07.806Z,93.33
2017-11-13T20:06:37.589Z,93.33
2017-11-13T20:09:07.638Z,93.37
2017-11-13T20:11:37.506Z,93.56
2017-11-13T20:14:07.416Z,93.85
2017-11-13T20:16:37.239Z,93.28
2017-11-13T20:19:07.051Z,92.83
2017-11-13T20:21:36.846Z,92.21
2017-11-13T20:24:06.708Z,91.83
2017-11-13T20:26:37.228Z,92.45
2017-11-13T20:29:07.120Z,92.34
2017-11-13T20:31:37.760Z,92.95
2017-11-13T20:34:08.435Z,93.09
2017-11-13T20:36:38.389Z,94.29
2017-11-13T20:39:09.199Z,97.58
2017-11-13T20:41:39.040Z,98.17
2017-11-13T20:44:09.919Z,98.68
2017-11-13T20:46:41.769Z,97.37
2017-11-13T20:49:11.752Z,96.31
2017-11-13T20:51:41.681Z,95.70
2017-11-13T20:54:11.461Z,95.00
2017-11-13T20:56:41.656Z,94.77
2017-11-13T20:59:11.661Z,94.24
2017-11-13T21:01:41.564Z,93.87
2017-11-13T21:04:11.334Z,93.18
2017-11-13T21:06:41.916Z,93.52
2017-11-13T21:09:11.715Z,94.25
2017-11-13T21:11:41.495Z,96.58
2017-11-13T21:14:11.323Z,97.85
2017-11-13T21:16:42.751Z,100.00
2017-11-13T21:19:12.680Z,100.00
2017-11-13T21:21:42.431Z,99.73
2017-11-13T21:24:12.054Z,98.42
2017-11-13T21:26:42.340Z,97.37
2017-11-13T21:29:12.395Z,96.34
2017-11-13T21:31:41.521Z,95.62
2017-11-13T21:34:10.131Z,94.99
2017-11-13T21:36:38.554Z,94.00
2017-11-13T21:39:06.925Z,93.28
2017-11-13T21:41:35.237Z,93.26
2017-11-13T21:44:04.327Z,93.03
2017-11-13T21:46:32.650Z,93.46
2017-11-13T21:49:00.947Z,93.39
2017-11-13T21:51:29.226Z,93.72
2017-11-13T21:53:57.521Z,93.78
2017-11-13T21:56:25.826Z,94.44
2017-11-13T21:58:54.887Z,94.80
2017-11-13T22:01:23.198Z,96.01
2017-11-13T22:03:52.467Z,96.13
2017-11-13T22:06:20.767Z,95.73
2017-11-13T22:08:49.101Z,94.66
2017-11-13T22:11:17.397Z,95.46
2017-11-13T22:13:45.695Z,96.36
2017-11-13T22:16:14.743Z,96.74
2017-11-13T22:18:43.058Z,96.29
2017-11-13T22:21:11.775Z,95.33
2017-11-13T22:23:40.073Z,94.00
2017-11-13T22:26:08.385Z,93.75
2017-11-13T22:28:36.759Z,94.51
2017-11-13T22:31:05.190Z,94.48
2017-11-13T22:33:33.470Z,94.40
2017-11-13T22:36:01.849Z,93.54
2017-11-13T22:38:30.165Z,93.06
2017-11-13T22:40:58.734Z,92.63
2017-11-13T22:43:27.030Z,92.20
2017-11-13T22:45:55.332Z,92.20
2017-11-13T22:48:23.673Z,91.91
2017-11-13T22:50:52.002Z,91.42
2017-11-13T22:53:21.058Z,91.44
2017-11-13T22:55:49.376Z,91.26
2017-11-13T22:58:17.686Z,91.29
2017-11-13T23:00:45.980Z,91.35
2017-11-13T23:03:14.249Z,91.17
2017-11-13T23:05:42.540Z,91.47
2017-11-13T23:08:10.822Z,91.91
2017-11-13T23:10:39.105Z,92.08
2017-11-13T23:13:07.398Z,92.01
2017-11-13T23:15:36.470Z,92.97
2017-11-13T23:18:04.835Z,93.88
2017-11-13T23:20:33.176Z,93.92
2017-11-13T23:23:01.473Z,93.13
2017-11-13T23:25:29.781Z,94.31
2017-11-13T23:27:58.067Z,96.14
2017-11-13T23:30:26.353Z,96.24
2017-11-13T23:32:54.655Z,95.55
2017-11-13T23:35:22.954Z,95.08
2017-11-13T23:37:51.242Z,96.58
2017-11-13T23:40:19.557Z,96.92
2017-11-13T23:42:48.730Z,96.86
2017-11-13T23:45:17.034Z,96.28
2017-11-13T23:47:45.321Z,96.62
2017-11-13T23:50:14.372Z,97.04
2017-11-13T23:52:42.679Z,96.76
2017-11-13T23:55:11.740Z,95.94
2017-11-13T23:57:40.041Z,95.64
